Terminal Aerodrome Forecast
Issued by NWS Upton, NY

Home | Current Version | Previous Version | Text Only | Print | Product List | Glossary On
Versions: 1 2 3 4 5 6 7 8 9 10 11 12 13 14 15 16 17 18 19 20 21 22 23 24 25 26 27 28 29 30 31 32 33 34
000
FTUS41 KOKX 280300 AAB
TAFLGA
TAF AMD
KLGA 280300Z 2803/2824 17008KT P6SM FEW040 SCT100
     FM280700 21007KT P6SM SCT013
     FM281100 20006KT P6SM BKN013
     FM281600 22012KT P6SM FEW025 BKN200
     FM281800 22014KT P6SM BKN040=

USA.gov is the U.S. government's official web portal to all federal, state and local government web resources and services.